createdAt,value
2019-04-10T00:00:47.800Z,99.90
2019-04-10T00:03:39.081Z,99.90
2019-04-10T00:06:25.837Z,99.90
2019-04-10T00:09:13.509Z,99.90
2019-04-10T00:12:01.421Z,99.90
2019-04-10T00:14:49.245Z,99.90
2019-04-10T00:17:37.507Z,99.90
2019-04-10T00:20:25.230Z,99.90
2019-04-10T00:23:13.175Z,99.90
2019-04-10T00:26:01.447Z,99.90
2019-04-10T00:28:49.772Z,99.90
2019-04-10T00:31:38.147Z,99.90
2019-04-10T00:34:26.392Z,99.90
2019-04-10T00:37:21.877Z,99.90
2019-04-10T00:40:05.566Z,99.90
2019-04-10T00:42:53.757Z,99.90
2019-04-10T00:45:41.950Z,99.90
2019-04-10T00:48:30.111Z,99.90
2019-04-10T00:51:18.083Z,99.90
2019-04-10T00:54:05.967Z,99.90
2019-04-10T00:56:53.910Z,99.90
2019-04-10T00:59:42.147Z,99.90
2019-04-10T01:02:29.963Z,99.90
2019-04-10T01:05:17.702Z,99.90
2019-04-10T01:08:06.487Z,99.90
2019-04-10T01:10:54.781Z,99.90
2019-04-10T01:13:43.119Z,99.90
2019-04-10T01:16:31.362Z,99.90
2019-04-10T01:19:19.702Z,99.90
2019-04-10T01:22:07.640Z,99.90
2019-04-10T01:24:56.268Z,99.90
2019-04-10T01:27:44.551Z,99.90
2019-04-10T01:30:32.798Z,99.90
2019-04-10T01:33:21.061Z,99.90
2019-04-10T01:36:08.958Z,99.90
2019-04-10T01:38:57.864Z,99.90
2019-04-10T01:41:46.023Z,99.90
2019-04-10T01:44:34.027Z,99.90
2019-04-10T01:47:21.686Z,99.90
2019-04-10T01:50:10.460Z,99.90
2019-04-10T01:52:59.563Z,99.90
2019-04-10T01:55:47.826Z,99.90
2019-04-10T01:58:35.552Z,99.90
2019-04-10T02:01:24.874Z,99.90
2019-04-10T02:04:13.088Z,99.90
2019-04-10T02:07:02.086Z,99.90
2019-04-10T02:09:50.515Z,99.90
2019-04-10T02:12:38.847Z,99.90
2019-04-10T02:15:26.614Z,99.90
2019-04-10T02:18:14.592Z,99.90
2019-04-10T02:21:03.320Z,99.90
2019-04-10T02:23:52.324Z,99.90
2019-04-10T02:26:41.344Z,99.90
2019-04-10T02:29:29.332Z,99.90
2019-04-10T02:32:18.395Z,99.90
2019-04-10T02:35:10.525Z,99.90
2019-04-10T02:38:04.475Z,99.90
2019-04-10T02:40:49.858Z,99.90
2019-04-10T02:43:38.088Z,99.90
2019-04-10T02:46:27.131Z,99.90
2019-04-10T02:49:16.349Z,99.90
2019-04-10T02:52:04.518Z,99.90
2019-04-10T02:54:53.751Z,99.90
2019-04-10T02:57:43.512Z,99.90
2019-04-10T03:00:31.593Z,99.90
2019-04-10T03:03:20.086Z,99.90
2019-04-10T03:06:09.136Z,99.90
2019-04-10T03:09:13.797Z,99.90
2019-04-10T03:11:47.519Z,99.90
2019-04-10T03:14:36.673Z,99.90
2019-04-10T03:17:24.817Z,99.90
2019-04-10T03:20:12.737Z,99.90
2019-04-10T03:23:01.009Z,99.90
2019-04-10T03:25:48.836Z,99.90
2019-04-10T03:28:37.088Z,99.90
2019-04-10T03:31:27.133Z,99.90
2019-04-10T03:34:18.379Z,99.90
2019-04-10T03:37:06.306Z,99.90
2019-04-10T03:39:55.249Z,99.90
2019-04-10T03:42:43.383Z,99.90
2019-04-10T03:45:31.117Z,99.90
2019-04-10T03:48:20.073Z,99.90
2019-04-10T03:51:08.255Z,99.90
2019-04-10T03:53:56.422Z,99.90
2019-04-10T03:56:44.254Z,99.90
2019-04-10T03:59:32.677Z,99.90
2019-04-10T04:02:20.556Z,99.90
2019-04-10T04:05:08.687Z,99.90
2019-04-10T04:07:57.120Z,99.90
2019-04-10T04:10:45.165Z,99.90
2019-04-10T04:13:33.342Z,99.90
2019-04-10T04:16:21.368Z,99.90
2019-04-10T04:19:10.028Z,99.90
2019-04-10T04:21:58.467Z,99.90
2019-04-10T04:24:46.324Z,99.90
2019-04-10T04:27:35.510Z,99.90
2019-04-10T04:30:24.675Z,99.90
2019-04-10T04:33:12.996Z,99.90
2019-04-10T04:36:02.010Z,99.90
2019-04-10T04:38:51.171Z,99.90
2019-04-10T04:41:40.110Z,99.90
2019-04-10T04:44:27.743Z,99.90
2019-04-10T04:47:15.741Z,99.90
2019-04-10T04:50:04.194Z,99.90
2019-04-10T04:52:52.280Z,99.90
2019-04-10T04:55:40.121Z,99.90
2019-04-10T04:58:28.439Z,99.90
2019-04-10T05:01:16.973Z,99.90
2019-04-10T05:04:05.119Z,99.90
2019-04-10T05:06:52.904Z,99.90
2019-04-10T05:09:42.134Z,99.90
2019-04-10T05:12:30.088Z,99.90
2019-04-10T05:15:18.493Z,99.90
2019-04-10T05:18:06.547Z,99.90
2019-04-10T05:20:54.702Z,99.90
2019-04-10T05:23:42.891Z,99.90
2019-04-10T05:26:30.641Z,99.90
2019-04-10T05:29:19.568Z,99.90
2019-04-10T05:32:07.472Z,99.90
2019-04-10T05:34:55.029Z,99.90
2019-04-10T05:37:43.536Z,99.90
2019-04-10T05:40:33.100Z,99.90
2019-04-10T05:43:21.978Z,99.90
2019-04-10T05:46:10.354Z,99.90
2019-04-10T05:48:58.172Z,99.90
2019-04-10T05:51:46.187Z,99.90
2019-04-10T05:54:35.313Z,99.90
2019-04-10T05:57:24.510Z,99.90
2019-04-10T06:00:14.710Z,99.90
2019-04-10T06:03:02.420Z,99.90
2019-04-10T06:05:50.795Z,99.90
2019-04-10T06:08:39.450Z,99.90
2019-04-10T06:11:27.114Z,99.90
2019-04-10T06:14:15.774Z,99.90
2019-04-10T06:17:04.258Z,99.90
2019-04-10T06:19:53.108Z,99.90
2019-04-10T06:22:41.565Z,99.90
2019-04-10T06:25:31.257Z,99.90
2019-04-10T06:28:19.522Z,99.90
2019-04-10T06:31:08.343Z,99.90
2019-04-10T06:33:56.327Z,99.90
2019-04-10T06:36:44.188Z,99.90
2019-04-10T06:39:33.089Z,99.90
2019-04-10T06:42:20.880Z,99.90
2019-04-10T06:45:09.421Z,99.90
2019-04-10T06:47:58.400Z,99.90
2019-04-10T06:50:47.363Z,99.90
2019-04-10T06:53:35.420Z,99.90
2019-04-10T06:56:23.257Z,99.90
2019-04-10T06:59:12.177Z,99.90
2019-04-10T07:02:13.129Z,99.90
2019-04-10T07:04:54.871Z,99.90
2019-04-10T07:07:49.092Z,99.90
2019-04-10T07:10:40.801Z,99.90
2019-04-10T07:13:20.004Z,99.90
2019-04-10T07:16:09.551Z,99.90
2019-04-10T07:18:59.841Z,99.90
2019-04-10T07:21:47.384Z,99.90
2019-04-10T07:24:39.079Z,99.90
2019-04-10T07:27:24.821Z,99.90
2019-04-10T07:30:13.978Z,99.90
2019-04-10T07:33:01.597Z,99.90
2019-04-10T07:35:49.950Z,99.90
2019-04-10T07:38:37.809Z,99.90
2019-04-10T07:41:26.380Z,99.90
2019-04-10T07:44:14.463Z,99.90
2019-04-10T07:47:02.735Z,99.90
2019-04-10T07:52:50.034Z,99.90
2019-04-10T07:55:37.921Z,99.90
2019-04-10T07:58:25.595Z,99.90
2019-04-10T08:01:14.066Z,99.90
2019-04-10T08:04:02.175Z,99.90
2019-04-10T08:06:50.266Z,99.90
2019-04-10T08:09:38.184Z,99.90
2019-04-10T08:12:37.545Z,99.90
2019-04-10T08:15:16.588Z,99.90
2019-04-10T08:18:04.961Z,99.90
2019-04-10T08:20:53.173Z,99.90
2019-04-10T08:23:40.816Z,99.90
2019-04-10T08:26:28.573Z,99.90
2019-04-10T08:29:16.400Z,99.90
2019-04-10T08:32:05.499Z,99.90
2019-04-10T08:34:53.534Z,99.90
2019-04-10T08:37:41.386Z,99.90
2019-04-10T08:40:30.057Z,99.90
2019-04-10T08:43:18.205Z,99.90
2019-04-10T08:46:06.067Z,99.90
2019-04-10T08:48:53.952Z,99.90
2019-04-10T08:51:41.948Z,99.90
2019-04-10T08:54:29.771Z,99.90
2019-04-10T08:57:17.377Z,99.90
2019-04-10T09:00:08.146Z,99.90
2019-04-10T09:02:56.060Z,99.90
2019-04-10T09:05:44.913Z,99.90
2019-04-10T09:08:33.024Z,99.90
2019-04-10T09:11:26.179Z,99.90
2019-04-10T09:14:10.708Z,99.90
2019-04-10T09:16:58.673Z,99.90
2019-04-10T09:26:46.639Z,99.90
2019-04-10T09:36:15.207Z,99.90
2019-04-10T09:39:03.876Z,99.90
2019-04-10T09:58:15.186Z,99.90
2019-04-10T10:19:11.997Z,99.90
2019-04-10T10:55:47.637Z,99.90
2019-04-10T10:58:35.542Z,99.90
2019-04-10T11:01:24.149Z,99.90
2019-04-10T11:04:12.999Z,99.90
2019-04-10T11:07:01.280Z,99.90
2019-04-10T11:09:50.362Z,99.90
2019-04-10T11:12:38.413Z,99.90
2019-04-10T11:15:26.472Z,99.90
2019-04-10T11:18:14.493Z,98.40
2019-04-10T11:21:08.007Z,97.90
2019-04-10T11:23:53.217Z,98.40
2019-04-10T11:26:42.626Z,98.80
2019-04-10T11:29:31.445Z,99.90
2019-04-10T11:32:20.004Z,99.90
2019-04-10T11:35:08.193Z,99.90
2019-04-10T11:37:59.261Z,99.90
2019-04-10T11:40:45.764Z,99.90
2019-04-10T11:43:35.852Z,99.90
2019-04-10T11:46:28.254Z,99.90
2019-04-10T11:49:15.453Z,99.90
2019-04-10T11:52:04.016Z,99.80
2019-04-10T11:55:04.652Z,99.80
2019-04-10T11:57:45.903Z,99.20
2019-04-10T12:00:49.242Z,97.80
2019-04-10T12:03:31.354Z,96.90
2019-04-10T12:06:21.163Z,96.50
2019-04-10T12:09:45.271Z,94.70
2019-04-10T12:12:01.499Z,95.00
2019-04-10T12:14:50.057Z,95.40
2019-04-10T12:17:38.214Z,94.60
2019-04-10T12:20:27.090Z,93.30
2019-04-10T12:23:15.017Z,91.50
2019-04-10T12:26:03.352Z,92.20
2019-04-10T12:28:51.911Z,92.60
2019-04-10T12:31:40.002Z,92.80
2019-04-10T12:34:28.529Z,91.70
2019-04-10T12:37:17.508Z,91.50
2019-04-10T12:40:07.686Z,90.90
2019-04-10T12:42:56.633Z,91.00
2019-04-10T12:45:44.617Z,92.20
2019-04-10T12:48:32.662Z,92.50
2019-04-10T12:51:21.500Z,88.50
2019-04-10T12:54:09.989Z,89.10
2019-04-10T12:56:58.822Z,88.70
2019-04-10T12:59:47.818Z,83.30
2019-04-10T13:02:36.555Z,84.60
2019-04-10T13:05:25.126Z,84.10
2019-04-10T13:08:21.247Z,79.80
2019-04-10T13:11:02.704Z,81.30
2019-04-10T13:13:51.321Z,81.40
2019-04-10T13:16:41.145Z,86.00
2019-04-10T13:19:29.234Z,85.50
2019-04-10T13:22:17.977Z,85.40
2019-04-10T13:25:06.543Z,85.30
2019-04-10T13:27:54.940Z,80.50
2019-04-10T13:30:49.706Z,80.50
2019-04-10T13:33:32.958Z,81.20
2019-04-10T13:36:21.793Z,80.30
2019-04-10T13:39:12.886Z,81.50
2019-04-10T13:42:01.001Z,79.70
2019-04-10T13:44:48.904Z,80.10
2019-04-10T13:47:36.845Z,79.60
2019-04-10T13:50:24.700Z,76.50
2019-04-10T13:53:13.412Z,77.10
2019-04-10T13:56:01.760Z,77.30
2019-04-10T13:58:50.761Z,76.70
2019-04-10T14:01:38.507Z,75.90
2019-04-10T14:04:27.201Z,74.90
2019-04-10T14:07:15.810Z,76.20
2019-04-10T14:10:07.093Z,76.70
2019-04-10T14:12:56.403Z,76.80
2019-04-10T14:15:46.261Z,76.00
2019-04-10T14:18:34.900Z,76.90
2019-04-10T14:21:22.940Z,77.60
2019-04-10T14:24:11.765Z,77.80
2019-04-10T14:27:09.893Z,78.90
2019-04-10T15:02:43.665Z,80.60
2019-04-10T15:05:32.544Z,80.60
2019-04-10T15:08:21.767Z,80.90
2019-04-10T15:11:10.842Z,81.50
2019-04-10T15:13:59.174Z,81.80
2019-04-10T15:16:54.482Z,81.20
2019-04-10T15:19:36.688Z,80.20
2019-04-10T15:22:25.412Z,80.40
2019-04-10T15:25:13.574Z,78.10
2019-04-10T15:28:02.224Z,78.70
2019-04-10T15:30:50.818Z,76.90
2019-04-10T15:33:39.437Z,77.40
2019-04-10T15:36:28.303Z,79.30
2019-04-10T15:39:16.862Z,78.70
2019-04-10T15:42:05.796Z,80.20
2019-04-10T15:44:54.480Z,78.90
2019-04-10T15:47:50.591Z,77.30
2019-04-10T15:50:32.653Z,79.40
2019-04-10T15:53:20.268Z,80.20
2019-04-10T15:56:08.157Z,79.50
2019-04-10T15:58:56.853Z,77.30
2019-04-10T16:01:46.775Z,76.50
2019-04-10T16:04:35.793Z,75.80
2019-04-10T16:07:24.470Z,75.30
2019-04-10T16:10:32.910Z,76.20
2019-04-10T16:13:28.261Z,76.50
2019-04-10T16:16:36.918Z,76.20
2019-04-10T16:19:42.890Z,76.80
2019-04-10T16:22:33.424Z,76.20
2019-04-10T16:25:25.679Z,76.50
2019-04-10T16:28:14.535Z,77.60
2019-04-10T16:31:03.308Z,78.10
2019-04-10T16:33:52.507Z,79.00
2019-04-10T16:36:41.649Z,80.60
2019-04-10T16:39:30.011Z,79.60
2019-04-10T16:42:18.890Z,80.50
2019-04-10T16:45:07.952Z,80.50
2019-04-10T16:47:56.656Z,80.60
2019-04-10T16:50:45.683Z,80.70
2019-04-10T16:53:34.132Z,80.50
2019-04-10T16:56:21.986Z,81.20
2019-04-10T16:59:09.728Z,80.80
2019-04-10T17:01:57.560Z,81.40
2019-04-10T17:04:45.140Z,81.80
2019-04-10T17:07:32.833Z,80.70
2019-04-10T17:10:24.463Z,82.50
2019-04-10T17:13:12.239Z,81.80
2019-04-10T17:15:59.854Z,83.50
2019-04-10T17:18:47.604Z,83.40
2019-04-10T17:21:36.258Z,84.70
2019-04-10T17:24:25.069Z,85.70
2019-04-10T17:27:13.230Z,86.30
2019-04-10T17:30:01.403Z,87.10
2019-04-10T17:32:49.069Z,87.70
2019-04-10T17:35:37.916Z,88.10
2019-04-10T17:38:26.724Z,90.00
2019-04-10T17:41:15.491Z,88.80
2019-04-10T17:44:03.603Z,90.00
2019-04-10T17:46:51.500Z,90.30
2019-04-10T17:49:39.452Z,90.80
2019-04-10T17:52:27.261Z,91.50
2019-04-10T17:55:15.541Z,92.00
2019-04-10T17:58:03.429Z,92.70
2019-04-10T18:00:53.754Z,93.70
2019-04-10T18:03:49.329Z,93.90
2019-04-10T18:06:31.205Z,94.50
2019-04-10T18:09:19.238Z,94.90
2019-04-10T18:12:08.397Z,95.80
2019-04-10T18:14:59.675Z,96.50
2019-04-10T18:17:47.788Z,97.10
2019-04-10T18:23:35.533Z,97.20
2019-04-10T18:26:24.289Z,97.30
2019-04-10T18:29:12.258Z,97.80
2019-04-10T18:32:02.127Z,97.70
2019-04-10T18:34:50.222Z,97.50
2019-04-10T18:37:39.109Z,98.10
2019-04-10T18:40:27.290Z,97.70
2019-04-10T18:43:16.274Z,98.40
2019-04-10T18:46:12.267Z,98.40
2019-04-10T18:48:54.763Z,98.60
2019-04-10T18:51:42.609Z,98.80
2019-04-10T18:54:31.817Z,98.90
2019-04-10T18:57:20.169Z,99.10
2019-04-10T19:00:20.112Z,99.50
2019-04-10T19:03:13.043Z,99.90
2019-04-10T19:06:02.668Z,99.90
2019-04-10T19:09:04.699Z,99.90
2019-04-10T19:11:41.348Z,99.90
2019-04-10T19:14:30.300Z,99.90
2019-04-10T19:17:19.002Z,99.90
2019-04-10T19:20:08.919Z,99.90
2019-04-10T19:22:57.408Z,99.90
2019-04-10T19:25:45.642Z,99.90
2019-04-10T19:28:36.923Z,99.90
2019-04-10T19:31:24.837Z,99.90
2019-04-10T19:34:12.842Z,99.90
2019-04-10T19:37:00.624Z,99.90
2019-04-10T19:39:48.831Z,99.90
2019-04-10T19:42:37.644Z,99.90
2019-04-10T19:45:26.153Z,99.90
2019-04-10T19:48:15.008Z,99.90
2019-04-10T19:51:02.902Z,99.90
2019-04-10T19:53:51.211Z,99.90
2019-04-10T19:56:39.072Z,99.90
2019-04-10T19:59:27.147Z,99.90
2019-04-10T20:02:15.428Z,99.90
2019-04-10T20:05:03.915Z,99.90
2019-04-10T20:07:53.385Z,99.90
2019-04-10T20:10:41.543Z,99.90
2019-04-10T20:13:30.391Z,99.90
2019-04-10T20:16:20.112Z,99.90
2019-04-10T20:19:09.526Z,99.90
2019-04-10T20:21:58.505Z,99.90
2019-04-10T20:24:47.133Z,99.90
2019-04-10T20:27:36.159Z,99.90
2019-04-10T20:30:25.833Z,99.90
2019-04-10T20:33:20.909Z,99.90
2019-04-10T20:36:08.985Z,99.90
2019-04-10T20:38:57.088Z,99.90
2019-04-10T20:41:51.975Z,99.90
2019-04-10T20:44:34.688Z,99.90
2019-04-10T20:47:22.796Z,99.90
2019-04-10T20:50:11.942Z,99.90
2019-04-10T20:52:59.860Z,99.90
2019-04-10T20:55:48.170Z,99.90
2019-04-10T20:58:36.399Z,99.90
2019-04-10T21:01:24.561Z,99.90
2019-04-10T21:04:12.826Z,99.90
2019-04-10T21:07:00.954Z,99.90
2019-04-10T21:09:48.764Z,99.90
2019-04-10T21:12:36.621Z,99.90
2019-04-10T21:15:25.750Z,99.90
2019-04-10T21:18:13.591Z,99.90
2019-04-10T21:21:01.756Z,99.90
2019-04-10T21:23:49.650Z,99.90
2019-04-10T21:26:38.720Z,99.90
2019-04-10T21:29:44.208Z,99.90
2019-04-10T21:32:36.463Z,99.90
2019-04-10T21:35:27.112Z,99.90
2019-04-10T21:38:15.228Z,99.90
2019-04-10T21:41:05.328Z,99.90
2019-04-10T21:43:52.371Z,99.90
2019-04-10T21:46:40.992Z,99.90
2019-04-10T21:49:30.351Z,99.90
2019-04-10T21:52:18.657Z,99.90
2019-04-10T21:55:06.963Z,99.90
2019-04-10T21:57:55.440Z,99.90
2019-04-10T22:00:54.280Z,99.90
2019-04-10T22:03:41.932Z,99.90
2019-04-10T22:06:31.101Z,99.90
2019-04-10T22:09:30.547Z,99.90
2019-04-10T22:12:25.668Z,99.90
2019-04-10T22:15:14.945Z,99.90
2019-04-10T22:18:03.105Z,99.90
2019-04-10T22:20:50.757Z,99.90
2019-04-10T22:23:38.584Z,99.90
2019-04-10T22:26:26.281Z,99.90
2019-04-10T22:29:14.222Z,99.90
2019-04-10T22:32:02.044Z,99.90
2019-04-10T22:34:50.617Z,99.90
2019-04-10T22:37:38.384Z,99.90
2019-04-10T22:40:26.011Z,99.90
2019-04-10T22:43:13.813Z,99.90
2019-04-10T22:46:02.604Z,99.90
2019-04-10T22:48:50.716Z,99.90
2019-04-10T22:51:38.375Z,99.90
2019-04-10T22:54:26.246Z,99.90
2019-04-10T22:57:14.569Z,99.90
2019-04-10T23:00:03.336Z,99.90
2019-04-10T23:02:51.212Z,99.90
2019-04-10T23:05:38.809Z,99.90
2019-04-10T23:08:27.358Z,99.90
2019-04-10T23:11:15.269Z,99.90
2019-04-10T23:14:04.409Z,99.90
2019-04-10T23:16:52.599Z,99.90
2019-04-10T23:19:40.484Z,99.90
2019-04-10T23:22:29.364Z,99.90
2019-04-10T23:25:18.355Z,99.90
2019-04-10T23:28:07.334Z,99.90
2019-04-10T23:30:55.230Z,99.90
2019-04-10T23:33:44.035Z,99.90
2019-04-10T23:36:32.162Z,99.90
2019-04-10T23:39:20.072Z,99.90
2019-04-10T23:42:07.855Z,99.90
2019-04-10T23:44:57.439Z,99.90
2019-04-10T23:47:45.061Z,99.90
2019-04-10T23:50:33.084Z,99.90
2019-04-10T23:53:21.077Z,99.90
2019-04-10T23:56:08.672Z,99.90
2019-04-10T23:58:56.481Z,99.90
